sensor_id;sensor_type;location;lat;lon;timestamp;temperature;humidity
51091;DHT22;37136;43.614;3.908;2022-07-30T00:02:15;25.00;1.00
51091;DHT22;37136;43.614;3.908;2022-07-30T00:04:42;24.90;1.00
51091;DHT22;37136;43.614;3.908;2022-07-30T00:07:08;24.90;1.00
51091;DHT22;37136;43.614;3.908;2022-07-30T00:09:34;24.80;1.00
51091;DHT22;37136;43.614;3.908;2022-07-30T00:11:59;24.80;1.00
51091;DHT22;37136;43.614;3.908;2022-07-30T00:14:25;24.80;1.00
51091;DHT22;37136;43.614;3.908;2022-07-30T00:16:52;24.80;1.00
51091;DHT22;37136;43.614;3.908;2022-07-30T00:19:18;24.70;1.00
51091;DHT22;37136;43.614;3.908;2022-07-30T00:21:44;24.80;1.00
51091;DHT22;37136;43.614;3.908;2022-07-30T00:24:09;24.80;1.00
51091;DHT22;37136;43.614;3.908;2022-07-30T00:26:35;24.70;1.00
51091;DHT22;37136;43.614;3.908;2022-07-30T00:29:02;24.60;1.00
51091;DHT22;37136;43.614;3.908;2022-07-30T00:31:27;24.60;1.00
51091;DHT22;37136;43.614;3.908;2022-07-30T00:33:53;24.60;1.00
51091;DHT22;37136;43.614;3.908;2022-07-30T00:36:19;24.60;1.00
51091;DHT22;37136;43.614;3.908;2022-07-30T00:38:45;24.50;1.00
51091;DHT22;37136;43.614;3.908;2022-07-30T00:41:11;24.50;1.00
51091;DHT22;37136;43.614;3.908;2022-07-30T00:43:37;24.50;1.00
51091;DHT22;37136;43.614;3.908;2022-07-30T00:46:02;24.50;1.00
51091;DHT22;37136;43.614;3.908;2022-07-30T00:48:28;24.60;1.00
51091;DHT22;37136;43.614;3.908;2022-07-30T00:50:54;24.50;1.00
51091;DHT22;37136;43.614;3.908;2022-07-30T00:53:19;24.50;1.00
51091;DHT22;37136;43.614;3.908;2022-07-30T00:55:45;24.50;1.00
51091;DHT22;37136;43.614;3.908;2022-07-30T00:58:11;24.40;1.00
51091;DHT22;37136;43.614;3.908;2022-07-30T01:00:37;24.40;1.00
51091;DHT22;37136;43.614;3.908;2022-07-30T01:03:03;24.40;1.00
51091;DHT22;37136;43.614;3.908;2022-07-30T01:05:29;24.50;1.00
51091;DHT22;37136;43.614;3.908;2022-07-30T01:07:55;24.50;1.00
51091;DHT22;37136;43.614;3.908;2022-07-30T01:10:21;24.60;1.00
51091;DHT22;37136;43.614;3.908;2022-07-30T01:12:47;24.60;1.00
51091;DHT22;37136;43.614;3.908;2022-07-30T01:15:13;24.50;1.00
51091;DHT22;37136;43.614;3.908;2022-07-30T01:17:39;24.40;1.00
51091;DHT22;37136;43.614;3.908;2022-07-30T01:20:10;24.50;1.00
51091;DHT22;37136;43.614;3.908;2022-07-30T01:25:59;24.40;1.00
51091;DHT22;37136;43.614;3.908;2022-07-30T01:28:31;24.30;1.00
51091;DHT22;37136;43.614;3.908;2022-07-30T01:30:58;24.20;1.00
51091;DHT22;37136;43.614;3.908;2022-07-30T01:33:25;24.20;1.00
51091;DHT22;37136;43.614;3.908;2022-07-30T01:35:53;24.20;1.00
51091;DHT22;37136;43.614;3.908;2022-07-30T01:38:22;24.10;1.00
51091;DHT22;37136;43.614;3.908;2022-07-30T01:40:52;24.20;1.00
51091;DHT22;37136;43.614;3.908;2022-07-30T01:43:22;24.20;1.00
51091;DHT22;37136;43.614;3.908;2022-07-30T01:45:49;24.30;1.00
51091;DHT22;37136;43.614;3.908;2022-07-30T01:48:19;24.20;1.00
51091;DHT22;37136;43.614;3.908;2022-07-30T01:50:46;24.20;1.00
51091;DHT22;37136;43.614;3.908;2022-07-30T01:53:19;24.30;1.00
51091;DHT22;37136;43.614;3.908;2022-07-30T01:55:45;24.20;1.00
51091;DHT22;37136;43.614;3.908;2022-07-30T01:58:13;24.30;1.00
51091;DHT22;37136;43.614;3.908;2022-07-30T02:00:42;24.30;1.00
51091;DHT22;37136;43.614;3.908;2022-07-30T02:03:10;24.20;1.00
51091;DHT22;37136;43.614;3.908;2022-07-30T02:05:37;24.20;1.00
51091;DHT22;37136;43.614;3.908;2022-07-30T02:08:21;24.20;1.00
51091;DHT22;37136;43.614;3.908;2022-07-30T02:10:53;24.20;1.00
51091;DHT22;37136;43.614;3.908;2022-07-30T02:13:22;24.20;1.00
51091;DHT22;37136;43.614;3.908;2022-07-30T02:16:09;24.20;1.00
51091;DHT22;37136;43.614;3.908;2022-07-30T02:18:47;24.00;1.00
51091;DHT22;37136;43.614;3.908;2022-07-30T02:21:18;24.00;1.00
51091;DHT22;37136;43.614;3.908;2022-07-30T02:23:45;23.90;1.00
51091;DHT22;37136;43.614;3.908;2022-07-30T02:26:13;24.00;1.00
51091;DHT22;37136;43.614;3.908;2022-07-30T02:28:46;24.00;1.00
51091;DHT22;37136;43.614;3.908;2022-07-30T02:31:13;24.00;1.00
51091;DHT22;37136;43.614;3.908;2022-07-30T02:33:42;24.10;1.00
51091;DHT22;37136;43.614;3.908;2022-07-30T02:36:09;24.10;1.00
51091;DHT22;37136;43.614;3.908;2022-07-30T02:38:37;24.00;1.00
51091;DHT22;37136;43.614;3.908;2022-07-30T02:41:04;23.90;1.00
51091;DHT22;37136;43.614;3.908;2022-07-30T02:43:32;23.90;1.00
51091;DHT22;37136;43.614;3.908;2022-07-30T02:45:59;23.90;1.00
51091;DHT22;37136;43.614;3.908;2022-07-30T02:48:26;23.90;1.00
51091;DHT22;37136;43.614;3.908;2022-07-30T02:50:54;23.90;1.00
51091;DHT22;37136;43.614;3.908;2022-07-30T02:53:21;23.80;1.00
51091;DHT22;37136;43.614;3.908;2022-07-30T02:55:49;23.80;1.00
51091;DHT22;37136;43.614;3.908;2022-07-30T02:58:19;23.80;1.00
51091;DHT22;37136;43.614;3.908;2022-07-30T03:00:49;23.90;1.00
51091;DHT22;37136;43.614;3.908;2022-07-30T03:03:17;23.90;1.00
51091;DHT22;37136;43.614;3.908;2022-07-30T03:05:43;23.90;1.00
51091;DHT22;37136;43.614;3.908;2022-07-30T03:08:12;23.80;1.00
51091;DHT22;37136;43.614;3.908;2022-07-30T03:10:41;23.80;1.00
51091;DHT22;37136;43.614;3.908;2022-07-30T03:13:09;23.80;1.00
51091;DHT22;37136;43.614;3.908;2022-07-30T03:15:39;23.80;1.00
51091;DHT22;37136;43.614;3.908;2022-07-30T03:18:08;23.70;1.00
51091;DHT22;37136;43.614;3.908;2022-07-30T03:20:35;23.70;1.00
51091;DHT22;37136;43.614;3.908;2022-07-30T03:23:02;23.70;1.00
51091;DHT22;37136;43.614;3.908;2022-07-30T03:25:29;23.70;1.00
51091;DHT22;37136;43.614;3.908;2022-07-30T03:27:58;23.70;1.00
51091;DHT22;37136;43.614;3.908;2022-07-30T03:30:24;23.70;1.00
51091;DHT22;37136;43.614;3.908;2022-07-30T03:32:52;23.60;1.00
51091;DHT22;37136;43.614;3.908;2022-07-30T03:35:19;23.50;1.00
51091;DHT22;37136;43.614;3.908;2022-07-30T03:37:47;23.40;1.00
51091;DHT22;37136;43.614;3.908;2022-07-30T03:40:13;23.40;1.00
51091;DHT22;37136;43.614;3.908;2022-07-30T03:42:40;23.40;1.00
51091;DHT22;37136;43.614;3.908;2022-07-30T03:45:07;23.40;1.00
51091;DHT22;37136;43.614;3.908;2022-07-30T03:47:36;23.40;1.00
51091;DHT22;37136;43.614;3.908;2022-07-30T03:50:04;23.40;1.00
51091;DHT22;37136;43.614;3.908;2022-07-30T03:52:33;23.40;1.00
51091;DHT22;37136;43.614;3.908;2022-07-30T03:55:00;23.40;1.00
51091;DHT22;37136;43.614;3.908;2022-07-30T03:57:26;23.30;1.00
51091;DHT22;37136;43.614;3.908;2022-07-30T03:59:52;23.20;1.00
51091;DHT22;37136;43.614;3.908;2022-07-30T04:02:18;23.20;1.00
51091;DHT22;37136;43.614;3.908;2022-07-30T04:04:44;23.00;1.00
51091;DHT22;37136;43.614;3.908;2022-07-30T04:07:10;23.00;1.00
51091;DHT22;37136;43.614;3.908;2022-07-30T04:09:36;23.00;1.00
51091;DHT22;37136;43.614;3.908;2022-07-30T04:12:02;22.90;1.00
51091;DHT22;37136;43.614;3.908;2022-07-30T04:14:42;22.90;1.00
51091;DHT22;37136;43.614;3.908;2022-07-30T04:17:14;22.90;1.00
51091;DHT22;37136;43.614;3.908;2022-07-30T04:19:54;22.90;1.00
51091;DHT22;37136;43.614;3.908;2022-07-30T04:22:31;22.90;1.00
51091;DHT22;37136;43.614;3.908;2022-07-30T04:24:59;22.80;1.00
51091;DHT22;37136;43.614;3.908;2022-07-30T04:27:27;22.80;1.00
51091;DHT22;37136;43.614;3.908;2022-07-30T04:29:53;22.80;1.00
51091;DHT22;37136;43.614;3.908;2022-07-30T04:32:19;22.80;1.00
51091;DHT22;37136;43.614;3.908;2022-07-30T04:34:55;22.90;1.00
51091;DHT22;37136;43.614;3.908;2022-07-30T04:37:23;22.90;1.00
51091;DHT22;37136;43.614;3.908;2022-07-30T04:39:49;23.00;1.00
51091;DHT22;37136;43.614;3.908;2022-07-30T04:42:28;22.90;1.00
51091;DHT22;37136;43.614;3.908;2022-07-30T04:44:55;22.90;1.00
51091;DHT22;37136;43.614;3.908;2022-07-30T04:47:21;22.90;1.00
51091;DHT22;37136;43.614;3.908;2022-07-30T04:49:48;22.90;1.00
51091;DHT22;37136;43.614;3.908;2022-07-30T04:52:15;22.90;1.00
51091;DHT22;37136;43.614;3.908;2022-07-30T04:54:47;23.00;1.00
51091;DHT22;37136;43.614;3.908;2022-07-30T04:57:15;23.00;1.00
51091;DHT22;37136;43.614;3.908;2022-07-30T04:59:43;23.00;1.00
51091;DHT22;37136;43.614;3.908;2022-07-30T05:02:10;22.90;1.00
51091;DHT22;37136;43.614;3.908;2022-07-30T05:04:37;22.90;1.00
51091;DHT22;37136;43.614;3.908;2022-07-30T05:07:04;22.90;1.00
51091;DHT22;37136;43.614;3.908;2022-07-30T05:09:31;22.90;1.00
51091;DHT22;37136;43.614;3.908;2022-07-30T05:11:58;23.00;1.00
51091;DHT22;37136;43.614;3.908;2022-07-30T05:14:24;23.00;1.00
51091;DHT22;37136;43.614;3.908;2022-07-30T05:16:51;23.20;1.00
51091;DHT22;37136;43.614;3.908;2022-07-30T05:19:20;23.20;1.00
51091;DHT22;37136;43.614;3.908;2022-07-30T05:21:46;23.20;1.00
51091;DHT22;37136;43.614;3.908;2022-07-30T05:24:12;23.20;1.00
51091;DHT22;37136;43.614;3.908;2022-07-30T05:26:38;23.30;1.00
51091;DHT22;37136;43.614;3.908;2022-07-30T05:29:04;23.30;1.00
51091;DHT22;37136;43.614;3.908;2022-07-30T05:31:30;23.30;1.00
51091;DHT22;37136;43.614;3.908;2022-07-30T05:33:55;23.40;1.00
51091;DHT22;37136;43.614;3.908;2022-07-30T05:36:21;23.40;1.00
51091;DHT22;37136;43.614;3.908;2022-07-30T05:38:47;23.50;1.00
51091;DHT22;37136;43.614;3.908;2022-07-30T05:41:13;23.60;1.00
51091;DHT22;37136;43.614;3.908;2022-07-30T05:43:39;23.60;1.00
51091;DHT22;37136;43.614;3.908;2022-07-30T05:46:05;23.60;1.00
51091;DHT22;37136;43.614;3.908;2022-07-30T05:48:31;23.70;1.00
51091;DHT22;37136;43.614;3.908;2022-07-30T05:51:00;23.70;1.00
51091;DHT22;37136;43.614;3.908;2022-07-30T05:53:26;23.80;1.00
51091;DHT22;37136;43.614;3.908;2022-07-30T05:55:52;23.90;1.00
51091;DHT22;37136;43.614;3.908;2022-07-30T05:58:18;24.00;1.00
51091;DHT22;37136;43.614;3.908;2022-07-30T06:00:44;24.10;1.00
51091;DHT22;37136;43.614;3.908;2022-07-30T06:03:09;24.10;1.00
51091;DHT22;37136;43.614;3.908;2022-07-30T06:05:35;24.30;1.00
51091;DHT22;37136;43.614;3.908;2022-07-30T06:08:01;24.30;1.00
51091;DHT22;37136;43.614;3.908;2022-07-30T06:10:27;24.40;1.00
51091;DHT22;37136;43.614;3.908;2022-07-30T06:12:53;24.40;1.00
51091;DHT22;37136;43.614;3.908;2022-07-30T06:15:19;24.60;1.00
51091;DHT22;37136;43.614;3.908;2022-07-30T06:17:45;24.60;1.00
51091;DHT22;37136;43.614;3.908;2022-07-30T06:20:14;24.80;1.00
51091;DHT22;37136;43.614;3.908;2022-07-30T06:22:40;24.80;1.00
51091;DHT22;37136;43.614;3.908;2022-07-30T06:25:07;24.90;1.00
51091;DHT22;37136;43.614;3.908;2022-07-30T06:27:33;25.00;1.00
51091;DHT22;37136;43.614;3.908;2022-07-30T06:30:01;25.10;1.00
51091;DHT22;37136;43.614;3.908;2022-07-30T06:32:27;25.20;1.00
51091;DHT22;37136;43.614;3.908;2022-07-30T06:34:53;25.30;1.00
51091;DHT22;37136;43.614;3.908;2022-07-30T06:37:18;25.40;1.00
51091;DHT22;37136;43.614;3.908;2022-07-30T06:39:44;25.50;99.90
51091;DHT22;37136;43.614;3.908;2022-07-30T06:42:10;25.60;99.90
51091;DHT22;37136;43.614;3.908;2022-07-30T06:44:36;25.70;99.90
51091;DHT22;37136;43.614;3.908;2022-07-30T06:47:03;25.70;99.90
51091;DHT22;37136;43.614;3.908;2022-07-30T06:49:31;26.00;99.90
51091;DHT22;37136;43.614;3.908;2022-07-30T06:51:57;26.20;99.90
51091;DHT22;37136;43.614;3.908;2022-07-30T06:54:23;26.40;99.90
51091;DHT22;37136;43.614;3.908;2022-07-30T06:56:48;26.60;99.90
51091;DHT22;37136;43.614;3.908;2022-07-30T06:59:14;26.70;99.90
51091;DHT22;37136;43.614;3.908;2022-07-30T07:01:40;26.90;99.90
51091;DHT22;37136;43.614;3.908;2022-07-30T07:04:06;27.10;99.90
51091;DHT22;37136;43.614;3.908;2022-07-30T07:06:31;27.30;99.90
51091;DHT22;37136;43.614;3.908;2022-07-30T07:08:58;27.40;99.90
51091;DHT22;37136;43.614;3.908;2022-07-30T07:11:23;27.50;99.90
51091;DHT22;37136;43.614;3.908;2022-07-30T07:13:49;27.60;99.90
51091;DHT22;37136;43.614;3.908;2022-07-30T07:16:15;27.70;99.90
51091;DHT22;37136;43.614;3.908;2022-07-30T07:18:41;27.90;99.90
51091;DHT22;37136;43.614;3.908;2022-07-30T07:21:06;28.10;99.90
51091;DHT22;37136;43.614;3.908;2022-07-30T07:23:33;28.20;99.90
51091;DHT22;37136;43.614;3.908;2022-07-30T07:25:59;28.40;99.90
51091;DHT22;37136;43.614;3.908;2022-07-30T07:28:25;28.20;99.90
51091;DHT22;37136;43.614;3.908;2022-07-30T07:30:51;28.20;99.90
51091;DHT22;37136;43.614;3.908;2022-07-30T07:33:17;28.30;99.90
51091;DHT22;37136;43.614;3.908;2022-07-30T07:35:43;28.50;99.90
51091;DHT22;37136;43.614;3.908;2022-07-30T07:38:08;28.50;99.90
51091;DHT22;37136;43.614;3.908;2022-07-30T07:40:34;28.40;99.90
51091;DHT22;37136;43.614;3.908;2022-07-30T07:43:00;28.70;99.90
51091;DHT22;37136;43.614;3.908;2022-07-30T07:45:26;28.80;99.90
51091;DHT22;37136;43.614;3.908;2022-07-30T07:47:51;28.70;99.90
51091;DHT22;37136;43.614;3.908;2022-07-30T07:50:19;28.80;99.90
51091;DHT22;37136;43.614;3.908;2022-07-30T07:52:45;28.80;99.90
51091;DHT22;37136;43.614;3.908;2022-07-30T07:55:11;28.90;99.90
51091;DHT22;37136;43.614;3.908;2022-07-30T07:57:44;29.00;99.90
51091;DHT22;37136;43.614;3.908;2022-07-30T08:00:12;28.90;99.90
51091;DHT22;37136;43.614;3.908;2022-07-30T08:02:42;29.00;99.90
51091;DHT22;37136;43.614;3.908;2022-07-30T08:05:08;29.00;99.90
51091;DHT22;37136;43.614;3.908;2022-07-30T08:07:35;29.20;99.90
51091;DHT22;37136;43.614;3.908;2022-07-30T08:10:01;29.20;99.90
51091;DHT22;37136;43.614;3.908;2022-07-30T08:12:27;29.20;99.90
51091;DHT22;37136;43.614;3.908;2022-07-30T08:14:52;29.30;99.90
51091;DHT22;37136;43.614;3.908;2022-07-30T08:17:18;29.30;99.90
51091;DHT22;37136;43.614;3.908;2022-07-30T08:19:44;29.30;99.90
51091;DHT22;37136;43.614;3.908;2022-07-30T08:22:11;29.40;99.90
51091;DHT22;37136;43.614;3.908;2022-07-30T08:24:37;29.40;99.90
51091;DHT22;37136;43.614;3.908;2022-07-30T08:27:03;29.40;99.90
51091;DHT22;37136;43.614;3.908;2022-07-30T08:29:28;29.40;99.90
51091;DHT22;37136;43.614;3.908;2022-07-30T08:31:54;29.60;99.90
51091;DHT22;37136;43.614;3.908;2022-07-30T08:34:20;29.70;99.90
51091;DHT22;37136;43.614;3.908;2022-07-30T08:36:46;29.50;99.90
51091;DHT22;37136;43.614;3.908;2022-07-30T08:39:13;29.60;99.90
51091;DHT22;37136;43.614;3.908;2022-07-30T08:41:40;29.70;99.90
51091;DHT22;37136;43.614;3.908;2022-07-30T08:44:09;29.90;99.90
51091;DHT22;37136;43.614;3.908;2022-07-30T08:46:35;30.00;99.90
51091;DHT22;37136;43.614;3.908;2022-07-30T08:49:05;29.90;99.90
51091;DHT22;37136;43.614;3.908;2022-07-30T08:51:33;30.10;99.90
51091;DHT22;37136;43.614;3.908;2022-07-30T08:53:59;29.90;99.90
51091;DHT22;37136;43.614;3.908;2022-07-30T08:56:26;30.10;99.90
51091;DHT22;37136;43.614;3.908;2022-07-30T08:58:52;30.20;99.90
51091;DHT22;37136;43.614;3.908;2022-07-30T09:01:19;30.30;99.90
51091;DHT22;37136;43.614;3.908;2022-07-30T09:03:46;30.40;99.90
51091;DHT22;37136;43.614;3.908;2022-07-30T09:06:12;30.30;99.90
51091;DHT22;37136;43.614;3.908;2022-07-30T09:08:38;30.40;99.90
51091;DHT22;37136;43.614;3.908;2022-07-30T09:11:03;30.60;99.90
51091;DHT22;37136;43.614;3.908;2022-07-30T09:13:34;30.70;99.90
51091;DHT22;37136;43.614;3.908;2022-07-30T09:16:01;30.70;99.90
51091;DHT22;37136;43.614;3.908;2022-07-30T09:18:32;30.40;99.90
51091;DHT22;37136;43.614;3.908;2022-07-30T09:21:01;30.30;99.90
51091;DHT22;37136;43.614;3.908;2022-07-30T09:23:27;30.40;99.90
51091;DHT22;37136;43.614;3.908;2022-07-30T09:25:53;30.30;99.90
51091;DHT22;37136;43.614;3.908;2022-07-30T09:28:30;30.50;99.90
51091;DHT22;37136;43.614;3.908;2022-07-30T09:30:56;30.90;99.90
51091;DHT22;37136;43.614;3.908;2022-07-30T09:33:38;30.90;99.90
51091;DHT22;37136;43.614;3.908;2022-07-30T09:36:05;30.80;99.90
51091;DHT22;37136;43.614;3.908;2022-07-30T09:38:51;30.80;99.90
51091;DHT22;37136;43.614;3.908;2022-07-30T09:41:19;31.10;99.90
51091;DHT22;37136;43.614;3.908;2022-07-30T09:43:51;30.90;99.90
51091;DHT22;37136;43.614;3.908;2022-07-30T09:46:17;30.70;99.90
51091;DHT22;37136;43.614;3.908;2022-07-30T09:48:43;30.90;99.90
51091;DHT22;37136;43.614;3.908;2022-07-30T09:51:11;31.00;99.90
51091;DHT22;37136;43.614;3.908;2022-07-30T09:53:55;31.00;99.90
51091;DHT22;37136;43.614;3.908;2022-07-30T09:56:28;31.20;99.90
51091;DHT22;37136;43.614;3.908;2022-07-30T09:58:54;31.00;99.90
51091;DHT22;37136;43.614;3.908;2022-07-30T10:01:20;31.00;99.90
51091;DHT22;37136;43.614;3.908;2022-07-30T10:03:46;31.10;99.90
51091;DHT22;37136;43.614;3.908;2022-07-30T10:06:12;31.30;99.90
51091;DHT22;37136;43.614;3.908;2022-07-30T10:08:40;31.50;99.90
51091;DHT22;37136;43.614;3.908;2022-07-30T10:11:08;31.60;99.90
51091;DHT22;37136;43.614;3.908;2022-07-30T10:13:35;31.50;99.90
51091;DHT22;37136;43.614;3.908;2022-07-30T10:16:01;31.50;99.90
51091;DHT22;37136;43.614;3.908;2022-07-30T10:18:28;31.50;99.90
51091;DHT22;37136;43.614;3.908;2022-07-30T10:20:55;31.70;99.90
51091;DHT22;37136;43.614;3.908;2022-07-30T10:23:22;32.00;99.90
51091;DHT22;37136;43.614;3.908;2022-07-30T10:25:49;32.20;99.90
51091;DHT22;37136;43.614;3.908;2022-07-30T10:28:19;32.10;99.90
51091;DHT22;37136;43.614;3.908;2022-07-30T10:30:48;31.90;99.90
51091;DHT22;37136;43.614;3.908;2022-07-30T10:33:14;31.70;99.90
51091;DHT22;37136;43.614;3.908;2022-07-30T10:35:40;32.00;99.90
51091;DHT22;37136;43.614;3.908;2022-07-30T10:38:10;31.70;99.90
51091;DHT22;37136;43.614;3.908;2022-07-30T10:40:49;32.00;99.90
51091;DHT22;37136;43.614;3.908;2022-07-30T10:48:51;32.30;99.90
51091;DHT22;37136;43.614;3.908;2022-07-30T10:51:21;32.50;99.90
51091;DHT22;37136;43.614;3.908;2022-07-30T10:53:47;32.60;99.90
51091;DHT22;37136;43.614;3.908;2022-07-30T10:56:21;32.40;99.90
51091;DHT22;37136;43.614;3.908;2022-07-30T10:59:07;32.60;99.90
51091;DHT22;37136;43.614;3.908;2022-07-30T11:04:21;32.60;99.90
51091;DHT22;37136;43.614;3.908;2022-07-30T11:06:48;32.40;99.90
51091;DHT22;37136;43.614;3.908;2022-07-30T11:09:34;32.40;99.90
51091;DHT22;37136;43.614;3.908;2022-07-30T11:12:00;32.70;99.90
51091;DHT22;37136;43.614;3.908;2022-07-30T11:17:15;32.90;99.90
51091;DHT22;37136;43.614;3.908;2022-07-30T11:22:31;32.90;99.90
51091;DHT22;37136;43.614;3.908;2022-07-30T11:25:03;32.90;99.90
51091;DHT22;37136;43.614;3.908;2022-07-30T11:27:49;32.70;99.90
51091;DHT22;37136;43.614;3.908;2022-07-30T11:32:46;32.90;99.90
51091;DHT22;37136;43.614;3.908;2022-07-30T11:40:20;33.10;99.90
51091;DHT22;37136;43.614;3.908;2022-07-30T11:42:47;33.30;99.90
51091;DHT22;37136;43.614;3.908;2022-07-30T11:47:47;33.30;99.90
51091;DHT22;37136;43.614;3.908;2022-07-30T11:50:33;33.40;99.90
51091;DHT22;37136;43.614;3.908;2022-07-30T11:53:19;33.50;99.90
51091;DHT22;37136;43.614;3.908;2022-07-30T11:55:59;33.50;99.90
51091;DHT22;37136;43.614;3.908;2022-07-30T11:58:32;33.60;99.90
51091;DHT22;37136;43.614;3.908;2022-07-30T12:01:07;33.50;99.90
51091;DHT22;37136;43.614;3.908;2022-07-30T12:03:39;33.90;99.90
51091;DHT22;37136;43.614;3.908;2022-07-30T12:06:07;34.20;99.90
51091;DHT22;37136;43.614;3.908;2022-07-30T12:08:46;33.90;99.90
51091;DHT22;37136;43.614;3.908;2022-07-30T12:11:12;34.10;99.90
51091;DHT22;37136;43.614;3.908;2022-07-30T12:13:39;34.20;99.90
51091;DHT22;37136;43.614;3.908;2022-07-30T12:16:11;33.80;99.90
51091;DHT22;37136;43.614;3.908;2022-07-30T12:18:38;33.90;99.90
51091;DHT22;37136;43.614;3.908;2022-07-30T12:21:08;34.20;99.90
51091;DHT22;37136;43.614;3.908;2022-07-30T12:23:36;34.30;99.90
51091;DHT22;37136;43.614;3.908;2022-07-30T12:26:03;34.00;99.90
51091;DHT22;37136;43.614;3.908;2022-07-30T12:28:31;34.10;99.90
51091;DHT22;37136;43.614;3.908;2022-07-30T12:30:59;34.20;99.90
51091;DHT22;37136;43.614;3.908;2022-07-30T12:33:27;34.30;99.90
51091;DHT22;37136;43.614;3.908;2022-07-30T12:35:57;34.40;99.90
51091;DHT22;37136;43.614;3.908;2022-07-30T12:38:25;34.30;99.90
51091;DHT22;37136;43.614;3.908;2022-07-30T12:41:00;33.80;99.90
51091;DHT22;37136;43.614;3.908;2022-07-30T12:43:49;33.70;99.90
51091;DHT22;37136;43.614;3.908;2022-07-30T12:46:18;33.60;99.90
51091;DHT22;37136;43.614;3.908;2022-07-30T12:51:27;33.80;99.90
51091;DHT22;37136;43.614;3.908;2022-07-30T12:53:55;34.00;99.90
51091;DHT22;37136;43.614;3.908;2022-07-30T12:56:26;34.10;99.90
51091;DHT22;37136;43.614;3.908;2022-07-30T12:58:53;34.00;99.90
51091;DHT22;37136;43.614;3.908;2022-07-30T13:01:41;34.20;99.90
51091;DHT22;37136;43.614;3.908;2022-07-30T13:04:07;34.00;99.90
51091;DHT22;37136;43.614;3.908;2022-07-30T13:06:33;34.00;99.90
51091;DHT22;37136;43.614;3.908;2022-07-30T13:08:59;34.20;99.90
51091;DHT22;37136;43.614;3.908;2022-07-30T13:11:45;34.00;99.90
51091;DHT22;37136;43.614;3.908;2022-07-30T13:14:12;33.80;99.90
51091;DHT22;37136;43.614;3.908;2022-07-30T13:16:40;34.10;99.90
51091;DHT22;37136;43.614;3.908;2022-07-30T13:19:08;34.30;99.90
51091;DHT22;37136;43.614;3.908;2022-07-30T13:21:36;34.60;99.90
51091;DHT22;37136;43.614;3.908;2022-07-30T13:24:02;34.50;99.90
51091;DHT22;37136;43.614;3.908;2022-07-30T13:26:29;34.50;99.90
51091;DHT22;37136;43.614;3.908;2022-07-30T13:28:56;34.30;99.90
51091;DHT22;37136;43.614;3.908;2022-07-30T13:31:22;34.40;99.90
51091;DHT22;37136;43.614;3.908;2022-07-30T13:33:48;34.50;99.90
51091;DHT22;37136;43.614;3.908;2022-07-30T13:36:15;34.50;99.90
51091;DHT22;37136;43.614;3.908;2022-07-30T13:38:41;34.40;99.90
51091;DHT22;37136;43.614;3.908;2022-07-30T13:41:06;34.30;99.90
51091;DHT22;37136;43.614;3.908;2022-07-30T13:43:32;34.50;99.90
51091;DHT22;37136;43.614;3.908;2022-07-30T13:45:58;34.40;99.90
51091;DHT22;37136;43.614;3.908;2022-07-30T13:48:24;34.40;99.90
51091;DHT22;37136;43.614;3.908;2022-07-30T13:50:50;34.80;99.90
51091;DHT22;37136;43.614;3.908;2022-07-30T13:53:16;34.80;99.90
51091;DHT22;37136;43.614;3.908;2022-07-30T13:55:42;34.90;99.90
51091;DHT22;37136;43.614;3.908;2022-07-30T13:58:08;35.20;99.90
51091;DHT22;37136;43.614;3.908;2022-07-30T14:00:35;35.10;99.90
51091;DHT22;37136;43.614;3.908;2022-07-30T14:03:06;34.90;99.90
51091;DHT22;37136;43.614;3.908;2022-07-30T14:05:33;34.70;99.90
51091;DHT22;37136;43.614;3.908;2022-07-30T14:08:00;34.70;99.90
51091;DHT22;37136;43.614;3.908;2022-07-30T14:10:27;34.40;99.90
51091;DHT22;37136;43.614;3.908;2022-07-30T14:12:53;34.70;99.90
51091;DHT22;37136;43.614;3.908;2022-07-30T14:15:29;34.60;99.90
51091;DHT22;37136;43.614;3.908;2022-07-30T14:17:56;35.00;99.90
51091;DHT22;37136;43.614;3.908;2022-07-30T14:20:22;35.10;99.90
51091;DHT22;37136;43.614;3.908;2022-07-30T14:22:48;35.50;99.90
51091;DHT22;37136;43.614;3.908;2022-07-30T14:25:14;35.70;99.90
51091;DHT22;37136;43.614;3.908;2022-07-30T14:27:40;35.40;99.90
51091;DHT22;37136;43.614;3.908;2022-07-30T14:30:07;34.40;99.90
51091;DHT22;37136;43.614;3.908;2022-07-30T14:32:37;34.40;99.90
51091;DHT22;37136;43.614;3.908;2022-07-30T14:35:07;34.20;99.90
51091;DHT22;37136;43.614;3.908;2022-07-30T14:37:34;34.40;99.90
51091;DHT22;37136;43.614;3.908;2022-07-30T14:40:00;34.30;99.90
51091;DHT22;37136;43.614;3.908;2022-07-30T14:42:26;34.20;99.90
51091;DHT22;37136;43.614;3.908;2022-07-30T14:44:52;34.30;99.90
51091;DHT22;37136;43.614;3.908;2022-07-30T14:47:18;34.20;99.90
51091;DHT22;37136;43.614;3.908;2022-07-30T14:49:43;34.30;99.90
51091;DHT22;37136;43.614;3.908;2022-07-30T14:52:10;34.40;99.90
51091;DHT22;37136;43.614;3.908;2022-07-30T14:54:36;34.20;99.90
51091;DHT22;37136;43.614;3.908;2022-07-30T14:57:02;33.90;99.90
51091;DHT22;37136;43.614;3.908;2022-07-30T14:59:28;34.00;99.90
51091;DHT22;37136;43.614;3.908;2022-07-30T15:01:55;34.20;99.90
51091;DHT22;37136;43.614;3.908;2022-07-30T15:04:21;34.10;99.90
51091;DHT22;37136;43.614;3.908;2022-07-30T15:06:47;33.70;99.90
51091;DHT22;37136;43.614;3.908;2022-07-30T15:09:13;33.90;99.90
51091;DHT22;37136;43.614;3.908;2022-07-30T15:11:39;35.90;99.90
51091;DHT22;37136;43.614;3.908;2022-07-30T15:14:05;39.60;99.90
51091;DHT22;37136;43.614;3.908;2022-07-30T15:16:31;41.70;99.90
51091;DHT22;37136;43.614;3.908;2022-07-30T15:18:57;41.90;99.90
51091;DHT22;37136;43.614;3.908;2022-07-30T15:21:23;41.10;99.90
51091;DHT22;37136;43.614;3.908;2022-07-30T15:23:49;37.40;99.90
51091;DHT22;37136;43.614;3.908;2022-07-30T15:26:15;35.60;99.90
51091;DHT22;37136;43.614;3.908;2022-07-30T15:28:41;38.80;99.90
51091;DHT22;37136;43.614;3.908;2022-07-30T15:31:07;41.20;99.90
51091;DHT22;37136;43.614;3.908;2022-07-30T15:33:33;42.10;99.90
51091;DHT22;37136;43.614;3.908;2022-07-30T15:36:01;39.70;99.90
51091;DHT22;37136;43.614;3.908;2022-07-30T15:38:27;36.70;99.90
51091;DHT22;37136;43.614;3.908;2022-07-30T15:40:54;38.50;99.90
51091;DHT22;37136;43.614;3.908;2022-07-30T15:43:20;40.70;99.90
51091;DHT22;37136;43.614;3.908;2022-07-30T15:45:45;42.50;99.90
51091;DHT22;37136;43.614;3.908;2022-07-30T15:48:11;43.90;99.90
51091;DHT22;37136;43.614;3.908;2022-07-30T15:50:37;44.30;99.90
51091;DHT22;37136;43.614;3.908;2022-07-30T15:53:03;45.20;99.90
51091;DHT22;37136;43.614;3.908;2022-07-30T15:55:28;45.00;99.90
51091;DHT22;37136;43.614;3.908;2022-07-30T15:57:54;45.20;99.90
51091;DHT22;37136;43.614;3.908;2022-07-30T16:00:21;45.10;99.90
51091;DHT22;37136;43.614;3.908;2022-07-30T16:02:47;45.20;99.90
51091;DHT22;37136;43.614;3.908;2022-07-30T16:05:14;46.20;99.90
51091;DHT22;37136;43.614;3.908;2022-07-30T16:07:41;47.20;99.90
51091;DHT22;37136;43.614;3.908;2022-07-30T16:10:07;47.80;99.90
51091;DHT22;37136;43.614;3.908;2022-07-30T16:12:34;48.40;99.90